Time;durP1;ratioP1;P1;durP2;ratioP2;P2;SDS_P1;SDS_P2;PMS_P1;PMS_P2;Temp;Humidity;BMP_temperature;BMP_pressure;BME280_temperature;BME280_humidity;BME280_pressure;Samples;Min_cycle;Max_cycle;Signal;HPM_P1;HPM_P2
2022/06/13 00:00:46;;;;;;;3.65;2.90;;;22.80;71.90;;;;;;5082721;28;20253;-86
2022/06/13 00:03:11;;;;;;;3.50;3.13;;;22.90;73.60;;;;;;5085413;28;20214;-85
2022/06/13 00:05:37;;;;;;;4.97;3.38;;;22.90;76.00;;;;;;5073442;28;20222;-86
2022/06/13 00:08:04;;;;;;;4.70;3.50;;;22.90;77.70;;;;;;5068903;28;20180;-86
2022/06/13 00:10:29;;;;;;;4.28;3.17;;;22.90;79.80;;;;;;5068029;28;20526;-86
2022/06/13 00:12:55;;;;;;;3.88;2.92;;;23.00;80.50;;;;;;5075910;28;20607;-85
2022/06/13 00:15:20;;;;;;;3.67;3.38;;;23.00;79.50;;;;;;5075676;28;20188;-86
2022/06/13 00:17:46;;;;;;;8.73;3.25;;;23.00;81.70;;;;;;5080494;28;20183;-85
2022/06/13 00:20:13;;;;;;;4.80;3.10;;;23.00;78.10;;;;;;5081200;28;20270;-87
2022/06/13 00:22:39;;;;;;;3.63;3.30;;;23.10;80.60;;;;;;5088218;28;20206;-86
2022/06/13 00:25:05;;;;;;;3.90;2.88;;;23.00;79.50;;;;;;5090935;28;20274;-86
2022/06/13 00:27:31;;;;;;;3.45;3.15;;;22.90;81.80;;;;;;5063762;28;20213;-86
2022/06/13 00:29:57;;;;;;;3.88;3.35;;;22.80;80.90;;;;;;5073324;28;20215;-85
2022/06/13 00:32:23;;;;;;;3.03;2.78;;;22.60;78.10;;;;;;5085137;28;20571;-85
2022/06/13 00:34:48;;;;;;;3.92;3.05;;;22.70;81.80;;;;;;5072874;28;20191;-85
2022/06/13 00:37:14;;;;;;;3.20;2.90;;;22.60;81.10;;;;;;5089680;28;20183;-85
2022/06/13 00:39:40;;;;;;;3.60;3.00;;;22.70;81.20;;;;;;5077641;28;20187;-85
2022/06/13 00:42:06;;;;;;;5.90;3.47;;;22.70;80.90;;;;;;5087758;28;20214;-86
2022/06/13 00:44:36;;;;;;;4.40;3.22;;;22.70;79.70;;;;;;5079882;28;20753;-85
2022/06/13 00:47:02;;;;;;;5.78;3.47;;;22.70;79.00;;;;;;5074739;28;20189;-85
2022/06/13 00:49:39;;;;;;;3.50;3.15;;;22.70;81.10;;;;;;5079365;28;20227;-86
2022/06/13 00:52:21;;;;;;;5.75;3.47;;;22.80;82.20;;;;;;5052911;28;20175;-86
2022/06/13 00:54:49;;;;;;;3.47;3.17;;;22.90;80.10;;;;;;5078480;28;20195;-87
2022/06/13 00:57:18;;;;;;;6.70;3.50;;;22.90;78.80;;;;;;5074753;28;20215;-86
2022/06/13 00:59:45;;;;;;;4.22;3.28;;;22.90;79.50;;;;;;5074986;28;20283;-86
2022/06/13 01:02:11;;;;;;;3.83;3.40;;;22.70;80.30;;;;;;5078533;28;20200;-86
2022/06/13 01:04:39;;;;;;;3.42;3.00;;;22.70;81.40;;;;;;5078732;28;20240;-86
2022/06/13 01:07:05;;;;;;;3.63;3.10;;;22.70;80.40;;;;;;5088797;28;20186;-86
2022/06/13 01:12:17;;;;;;;4.82;3.30;;;22.60;80.10;;;;;;5085981;28;20209;-86
2022/06/13 01:15:04;;;;;;;3.88;3.58;;;22.60;82.70;;;;;;5077962;28;20183;-86
2022/06/13 01:18:00;;;;;;;3.63;3.33;;;22.60;82.60;;;;;;5076746;28;20229;-86
2022/06/13 01:20:51;;;;;;;3.72;3.42;;;22.30;82.70;;;;;;5074951;28;20205;-86
2022/06/13 01:23:48;;;;;;;3.53;2.97;;;22.20;85.00;;;;;;5075787;28;20287;-86
2022/06/13 01:26:38;;;;;;;4.57;3.20;;;22.00;85.90;;;;;;5060604;28;20275;-86
2022/06/13 01:29:21;;;;;;;3.10;2.90;;;22.00;85.70;;;;;;5077550;28;20220;-86
2022/06/13 01:31:58;;;;;;;3.25;2.95;;;22.20;85.90;;;;;;5061893;28;20183;-86
2022/06/13 01:34:36;;;;;;;3.75;3.10;;;22.20;85.30;;;;;;5078406;28;20199;-86
2022/06/13 01:37:16;;;;;;;3.80;3.35;;;22.20;85.70;;;;;;5075354;28;20207;-86
2022/06/13 01:40:00;;;;;;;4.03;2.97;;;22.00;86.00;;;;;;5085842;28;20255;-86
2022/06/13 01:42:41;;;;;;;3.50;3.20;;;22.00;87.10;;;;;;5081323;28;20746;-86
2022/06/13 01:45:20;;;;;;;4.45;3.03;;;22.10;86.40;;;;;;5072877;28;20198;-86
2022/06/13 01:47:59;;;;;;;4.05;2.95;;;21.90;85.40;;;;;;5071460;28;20183;-86
2022/06/13 01:50:57;;;;;;;3.55;2.85;;;21.80;86.30;;;;;;5075826;28;20668;-86
2022/06/13 01:53:45;;;;;;;3.38;3.10;;;21.70;88.60;;;;;;5028351;28;20211;-86
2022/06/13 01:56:13;;;;;;;4.55;3.10;;;21.80;87.60;;;;;;5070563;28;20205;-86
2022/06/13 01:58:56;;;;;;;3.58;2.97;;;21.90;86.60;;;;;;5072339;28;20686;-86
2022/06/13 02:01:43;;;;;;;6.75;3.40;;;22.00;86.70;;;;;;5078398;28;20244;-86
2022/06/13 02:04:17;;;;;;;3.00;2.80;;;21.80;85.90;;;;;;5073177;28;20199;-86
2022/06/13 02:06:51;;;;;;;3.50;3.20;;;21.70;87.80;;;;;;5076676;28;20186;-86
2022/06/13 02:09:24;;;;;;;3.90;3.45;;;21.70;87.90;;;;;;5072503;28;20578;-86
2022/06/13 02:11:53;;;;;;;3.50;3.20;;;21.70;87.30;;;;;;5062819;28;20175;-86
2022/06/13 02:14:21;;;;;;;3.13;2.72;;;21.80;86.70;;;;;;5075553;28;20195;-86
2022/06/13 02:16:55;;;;;;;3.60;3.30;;;21.80;87.10;;;;;;5074751;28;20176;-86
2022/06/13 02:19:24;;;;;;;3.60;3.30;;;21.80;86.70;;;;;;5059184;28;20207;-86
2022/06/13 02:21:57;;;;;;;3.83;3.42;;;21.70;85.30;;;;;;5071324;28;20592;-86
2022/06/13 02:24:31;;;;;;;4.22;3.30;;;21.80;83.70;;;;;;5072178;28;20204;-86
2022/06/13 02:26:59;;;;;;;3.20;2.92;;;21.80;83.80;;;;;;5076404;28;20178;-86
2022/06/13 02:29:40;;;;;;;3.95;3.20;;;21.50;85.00;;;;;;5069762;28;20225;-86
2022/06/13 02:32:14;;;;;;;3.65;3.30;;;21.40;86.20;;;;;;5075961;28;20180;-86
2022/06/13 02:34:44;;;;;;;3.50;3.20;;;21.30;87.20;;;;;;5070897;28;20188;-85
2022/06/13 02:37:13;;;;;;;4.35;3.05;;;21.30;87.20;;;;;;5078293;28;20199;-85
2022/06/13 02:40:12;;;;;;;7.10;3.85;;;21.50;86.10;;;;;;5086650;28;20190;-86
2022/06/13 02:42:51;;;;;;;3.92;3.63;;;21.70;84.90;;;;;;5073498;28;20219;-86
2022/06/13 02:45:21;;;;;;;4.18;3.15;;;21.70;84.20;;;;;;5079465;28;20387;-86
2022/06/13 02:47:56;;;;;;;4.72;3.20;;;21.60;84.70;;;;;;5064683;28;20187;-85
2022/06/13 02:50:48;;;;;;;5.28;3.40;;;21.70;84.60;;;;;;5073812;28;20585;-86
2022/06/13 02:53:19;;;;;;;4.20;3.50;;;21.60;84.10;;;;;;5069870;28;20632;-86
2022/06/13 02:56:06;;;;;;;4.57;3.58;;;21.50;85.00;;;;;;5080725;28;20179;-85
2022/06/13 02:59:01;;;;;;;3.70;3.40;;;21.50;85.60;;;;;;5081419;28;20187;-85
2022/06/13 03:01:42;;;;;;;3.47;3.17;;;21.50;85.00;;;;;;5084177;28;20195;-86
2022/06/13 03:04:27;;;;;;;3.63;3.20;;;21.40;84.40;;;;;;5081388;28;20199;-86
2022/06/13 03:07:02;;;;;;;3.65;3.35;;;21.50;84.30;;;;;;5072312;28;20182;-86
2022/06/13 03:09:39;;;;;;;5.72;2.83;;;21.40;84.50;;;;;;5077151;28;20223;-86
2022/06/13 03:12:22;;;;;;;4.40;3.33;;;21.30;84.70;;;;;;5078559;28;20273;-86
2022/06/13 03:15:05;;;;;;;4.38;3.20;;;21.00;84.60;;;;;;5079463;28;20722;-85
2022/06/13 03:17:36;;;;;;;3.53;3.22;;;20.80;86.50;;;;;;5077915;28;20198;-86
2022/06/13 03:20:16;;;;;;;3.65;3.35;;;20.90;86.70;;;;;;5081396;28;20193;-86
2022/06/13 03:22:53;;;;;;;5.00;4.55;;;20.70;86.40;;;;;;5078865;28;20207;-86
2022/06/13 03:25:26;;;;;;;5.50;3.60;;;20.80;86.10;;;;;;5072925;28;20179;-85
2022/06/13 03:28:03;;;;;;;3.67;3.38;;;20.80;84.90;;;;;;5079464;28;20213;-86
2022/06/13 03:30:31;;;;;;;4.50;3.42;;;21.00;83.80;;;;;;5070872;28;20305;-86
2022/06/13 03:35:51;;;;;;;4.75;3.60;;;21.00;81.90;;;;;;5077907;28;20183;-86
2022/06/13 03:38:22;;;;;;;5.43;3.40;;;21.00;82.90;;;;;;5072070;28;20191;-86
2022/06/13 03:40:52;;;;;;;3.92;3.22;;;20.90;82.90;;;;;;5066043;28;20191;-86
2022/06/13 03:43:28;;;;;;;3.42;3.13;;;20.80;83.60;;;;;;5075703;28;20211;-86
2022/06/13 03:46:07;;;;;;;3.78;3.00;;;20.80;83.00;;;;;;5074259;28;20194;-86
2022/06/13 03:48:41;;;;;;;6.70;3.40;;;20.70;83.40;;;;;;5075985;28;20661;-85
2022/06/13 03:51:37;;;;;;;3.65;3.15;;;20.40;84.00;;;;;;5078023;28;20220;-85
2022/06/13 03:54:13;;;;;;;3.65;3.35;;;20.10;85.00;;;;;;5078167;28;20198;-85
2022/06/13 03:56:51;;;;;;;5.05;3.13;;;20.00;85.80;;;;;;5074327;28;20539;-85
2022/06/13 03:59:25;;;;;;;6.90;3.38;;;19.80;85.00;;;;;;5067602;28;20243;-85
2022/06/13 04:02:08;;;;;;;3.72;3.15;;;19.50;87.60;;;;;;5075481;28;20187;-86
2022/06/13 04:04:44;;;;;;;5.10;3.25;;;19.50;88.30;;;;;;5078177;28;20192;-85
2022/06/13 04:07:09;;;;;;;4.57;3.40;;;19.60;87.10;;;;;;5077537;28;20187;-85
2022/06/13 04:09:45;;;;;;;3.20;3.00;;;19.60;86.70;;;;;;5079464;28;20274;-85
2022/06/13 04:12:44;;;;;;;3.42;3.05;;;19.70;87.00;;;;;;5078605;28;20203;-85
2022/06/13 04:15:30;;;;;;;5.93;3.50;;;19.80;86.20;;;;;;5076392;28;20176;-85
2022/06/13 04:18:29;;;;;;;4.47;3.80;;;20.00;83.80;;;;;;5075647;28;20682;-85
2022/06/13 04:21:22;;;;;;;3.83;3.30;;;20.10;82.90;;;;;;5069998;28;20236;-85
2022/06/13 04:24:14;;;;;;;3.40;3.10;;;20.10;83.30;;;;;;5074914;28;20520;-85
2022/06/13 04:27:15;;;;;;;7.10;3.88;;;20.00;79.60;;;;;;5075828;28;20182;-86
2022/06/13 04:29:49;;;;;;;4.38;3.33;;;19.90;78.50;;;;;;5075906;28;20201;-85
2022/06/13 04:32:20;;;;;;;7.18;3.33;;;19.90;75.00;;;;;;5083686;28;20176;-85
2022/06/13 04:34:49;;;;;;;6.57;3.28;;;19.90;78.00;;;;;;5073807;28;20174;-85
2022/06/13 04:37:16;;;;;;;3.78;3.22;;;20.10;76.80;;;;;;5062676;28;20185;-85
2022/06/13 04:39:44;;;;;;;4.95;3.25;;;20.00;78.50;;;;;;5078660;28;20221;-86
2022/06/13 04:42:12;;;;;;;8.88;3.70;;;20.20;77.10;;;;;;5074872;28;20205;-85
2022/06/13 04:44:40;;;;;;;3.95;3.38;;;20.20;78.00;;;;;;5074198;28;20193;-85
2022/06/13 04:47:07;;;;;;;4.78;3.30;;;20.20;78.40;;;;;;5076434;28;20738;-85
2022/06/13 04:49:50;;;;;;;3.92;3.35;;;20.30;78.30;;;;;;5075599;28;20273;-85
2022/06/13 04:52:20;;;;;;;3.42;3.13;;;20.50;76.20;;;;;;5077106;28;20196;-85
2022/06/13 04:55:11;;;;;;;5.15;3.90;;;20.50;77.60;;;;;;5074806;28;20187;-85
2022/06/13 04:57:37;;;;;;;4.18;3.60;;;20.50;77.90;;;;;;5074779;28;20259;-85
2022/06/13 05:00:09;;;;;;;4.90;3.40;;;20.60;76.20;;;;;;5059318;28;20186;-85
2022/06/13 05:02:45;;;;;;;5.72;3.80;;;20.60;74.40;;;;;;5076787;28;20210;-85
2022/06/13 05:05:27;;;;;;;4.80;3.38;;;20.60;70.30;;;;;;5073615;28;20187;-85
2022/06/13 05:07:52;;;;;;;5.43;3.90;;;20.70;70.40;;;;;;5077105;28;20197;-85
2022/06/13 05:10:21;;;;;;;6.63;3.75;;;20.70;72.60;;;;;;5051183;28;20212;-85
2022/06/13 05:12:47;;;;;;;4.38;3.33;;;20.70;71.60;;;;;;5074960;28;20217;-85
2022/06/13 05:15:24;;;;;;;5.10;3.55;;;20.80;70.50;;;;;;5059646;28;20381;-86
2022/06/13 05:17:56;;;;;;;3.97;3.35;;;20.80;72.50;;;;;;5072316;28;20259;-85
2022/06/13 05:20:49;;;;;;;6.53;3.60;;;20.80;73.70;;;;;;5076299;28;20187;-85
2022/06/13 05:23:43;;;;;;;4.68;3.47;;;20.80;72.70;;;;;;5075339;28;20198;-85
2022/06/13 05:26:09;;;;;;;5.63;3.40;;;20.80;72.50;;;;;;5073692;28;20194;-85
2022/06/13 05:28:36;;;;;;;6.30;3.30;;;20.90;72.80;;;;;;5082515;28;20186;-86
2022/06/13 05:31:18;;;;;;;6.85;3.30;;;20.80;74.10;;;;;;5066218;28;20543;-85
2022/06/13 05:33:46;;;;;;;5.65;3.70;;;20.80;76.20;;;;;;5073333;28;20202;-86
2022/06/13 05:36:16;;;;;;;4.43;3.47;;;20.80;75.20;;;;;;5061629;28;20199;-86
2022/06/13 05:38:48;;;;;;;4.95;3.65;;;20.90;68.90;;;;;;5079227;28;20194;-86
2022/06/13 05:41:13;;;;;;;6.22;3.47;;;20.90;71.00;;;;;;5079778;28;20207;-86
2022/06/13 05:43:39;;;;;;;7.15;3.70;;;20.90;70.30;;;;;;5064670;28;20224;-86
2022/06/13 05:46:07;;;;;;;6.75;3.90;;;21.00;66.30;;;;;;5080821;28;20193;-85
2022/06/13 05:48:33;;;;;;;4.10;3.17;;;20.90;61.70;;;;;;5078277;28;20193;-85
2022/06/13 05:50:59;;;;;;;5.10;3.58;;;20.90;61.90;;;;;;5085148;28;20245;-85
2022/06/13 05:53:27;;;;;;;6.60;3.40;;;20.70;59.70;;;;;;5080025;28;20245;-85
2022/06/13 05:55:57;;;;;;;7.05;3.45;;;20.70;58.90;;;;;;5079181;28;20200;-85
2022/06/13 05:58:23;;;;;;;4.57;3.50;;;20.70;60.40;;;;;;5071723;28;20187;-85
2022/06/13 06:00:54;;;;;;;6.15;3.72;;;20.80;59.30;;;;;;5078422;28;20259;-85
2022/06/13 06:03:21;;;;;;;5.45;3.55;;;20.70;58.00;;;;;;5078170;28;20197;-85
2022/06/13 06:05:47;;;;;;;6.43;3.50;;;20.80;60.30;;;;;;5079790;28;20186;-84
2022/06/13 06:08:17;;;;;;;6.57;3.75;;;20.90;58.90;;;;;;5080994;28;20190;-84
2022/06/13 06:10:44;;;;;;;4.97;3.50;;;20.80;61.70;;;;;;5081853;28;20308;-85
2022/06/13 06:13:13;;;;;;;4.53;3.40;;;20.80;63.40;;;;;;5081457;28;20317;-85
2022/06/13 06:15:40;;;;;;;4.32;3.50;;;20.90;64.30;;;;;;5060303;28;20191;-85
2022/06/13 06:18:06;;;;;;;5.93;3.55;;;20.80;60.20;;;;;;5081672;28;20186;-86
2022/06/13 06:20:32;;;;;;;5.82;3.53;;;20.80;63.20;;;;;;5081004;28;20207;-85
2022/06/13 06:22:58;;;;;;;8.45;4.05;;;20.70;60.40;;;;;;5076158;28;20213;-85
2022/06/13 06:25:23;;;;;;;5.43;3.80;;;20.60;60.10;;;;;;5078122;28;20183;-85
2022/06/13 06:27:49;;;;;;;6.68;3.60;;;20.80;59.70;;;;;;5081936;28;20202;-85
2022/06/13 06:30:18;;;;;;;5.25;3.80;;;20.90;61.60;;;;;;5083448;28;20268;-85
2022/06/13 06:32:44;;;;;;;5.30;3.80;;;20.90;59.40;;;;;;5082252;28;20623;-84
2022/06/13 06:35:10;;;;;;;6.03;3.40;;;21.00;60.70;;;;;;5065157;28;20188;-84
2022/06/13 06:37:40;;;;;;;5.40;3.33;;;21.00;59.60;;;;;;5077415;28;20191;-85
2022/06/13 06:40:07;;;;;;;4.07;3.30;;;20.90;63.10;;;;;;5083876;28;20213;-84
2022/06/13 06:42:33;;;;;;;6.20;4.10;;;20.90;60.80;;;;;;5083715;28;20202;-85
2022/06/13 06:44:59;;;;;;;5.75;3.13;;;20.80;60.00;;;;;;5073110;28;20232;-85
2022/06/13 06:47:25;;;;;;;6.22;3.42;;;21.00;59.00;;;;;;5083469;28;20205;-85
2022/06/13 06:49:51;;;;;;;5.30;3.78;;;20.80;60.60;;;;;;5066237;28;20229;-85
2022/06/13 06:52:16;;;;;;;6.65;4.20;;;20.80;61.50;;;;;;5079492;28;20605;-85
2022/06/13 07:00:11;;;;;;;4.78;3.63;;;21.00;58.30;;;;;;5083484;28;20224;-85
2022/06/13 07:02:36;;;;;;;6.65;3.58;;;21.20;58.90;;;;;;5082731;28;20271;-84
2022/06/13 07:05:06;;;;;;;6.70;3.65;;;21.20;53.40;;;;;;5090285;28;20194;-86
2022/06/13 07:07:31;;;;;;;9.07;4.13;;;21.30;54.60;;;;;;5080799;28;20187;-84
2022/06/13 07:09:57;;;;;;;5.03;3.92;;;21.20;53.60;;;;;;5079057;28;20302;-85
2022/06/13 07:12:23;;;;;;;5.13;3.70;;;21.30;55.00;;;;;;5078990;28;20218;-85
2022/06/13 07:14:49;;;;;;;7.05;3.63;;;21.30;55.50;;;;;;5078171;28;20650;-84
2022/06/13 07:17:15;;;;;;;6.97;3.97;;;21.30;52.80;;;;;;5077339;28;20190;-84
2022/06/13 07:19:44;;;;;;;9.45;3.78;;;21.10;52.80;;;;;;5058801;28;20187;-84
2022/06/13 07:22:17;;;;;;;8.77;4.00;;;21.20;53.90;;;;;;5086441;28;20191;-84
2022/06/13 07:24:43;;;;;;;5.82;3.60;;;21.30;52.90;;;;;;5077172;28;20185;-86
2022/06/13 07:27:10;;;;;;;7.50;4.35;;;21.40;52.80;;;;;;5078494;28;20692;-85
2022/06/13 07:29:36;;;;;;;5.05;3.78;;;21.50;51.70;;;;;;5078648;28;20287;-84
2022/06/13 07:32:10;;;;;;;4.57;3.42;;;21.40;51.80;;;;;;5075849;28;20198;-85
2022/06/13 07:34:38;;;;;;;6.35;3.60;;;21.50;52.30;;;;;;5069368;28;20215;-84
2022/06/13 07:37:06;;;;;;;4.50;3.67;;;21.50;50.50;;;;;;5081629;28;20258;-83
2022/06/13 07:39:31;;;;;;;7.40;3.92;;;21.70;52.20;;;;;;5081367;28;20199;-84
2022/06/13 07:41:57;;;;;;;6.20;3.35;;;21.80;50.60;;;;;;5088432;28;20232;-84
2022/06/13 07:44:26;;;;;;;6.30;3.80;;;21.90;50.10;;;;;;5077126;28;20241;-84
2022/06/13 07:46:52;;;;;;;7.55;3.65;;;22.00;50.30;;;;;;5081441;28;20578;-84
2022/06/13 07:49:19;;;;;;;5.80;3.60;;;21.80;51.00;;;;;;5080257;28;20217;-84
2022/06/13 07:51:46;;;;;;;6.05;4.20;;;21.80;50.90;;;;;;5078817;28;20200;-85
2022/06/13 07:54:12;;;;;;;8.95;3.92;;;21.80;50.50;;;;;;5044907;28;20288;-83
2022/06/13 07:56:39;;;;;;;4.82;3.53;;;21.90;51.20;;;;;;5077358;28;20216;-84
2022/06/13 07:59:07;;;;;;;7.40;3.42;;;21.90;50.50;;;;;;5080993;28;20237;-85
2022/06/13 08:01:33;;;;;;;5.53;3.90;;;22.00;50.80;;;;;;5066406;28;20191;-84
2022/06/13 08:03:58;;;;;;;4.65;3.50;;;22.10;49.80;;;;;;5080597;28;20218;-84
2022/06/13 08:06:25;;;;;;;6.18;4.35;;;22.20;50.60;;;;;;5079474;28;20195;-83
2022/06/13 08:08:51;;;;;;;7.05;3.88;;;22.20;50.00;;;;;;5079305;28;20199;-84
2022/06/13 08:11:24;;;;;;;7.80;3.83;;;22.30;53.10;;;;;;5079242;28;20180;-84
2022/06/13 08:13:49;;;;;;;6.90;4.55;;;22.20;53.00;;;;;;5064267;28;20211;-84
2022/06/13 08:16:15;;;;;;;7.50;4.35;;;21.90;54.90;;;;;;5089497;28;20190;-85
2022/06/13 08:18:42;;;;;;;6.65;4.45;;;21.80;54.70;;;;;;5088449;28;20186;-84
2022/06/13 08:21:08;;;;;;;8.98;5.35;;;21.80;53.70;;;;;;5087399;28;20180;-84
2022/06/13 08:23:34;;;;;;;8.18;4.20;;;22.10;52.70;;;;;;5077178;28;20199;-84
2022/06/13 08:26:00;;;;;;;6.07;4.57;;;22.10;50.60;;;;;;5046104;28;20183;-84
2022/06/13 08:28:26;;;;;;;7.22;4.03;;;22.30;51.10;;;;;;5094713;28;20179;-85
2022/06/13 08:30:59;;;;;;;6.50;4.45;;;22.30;50.90;;;;;;5079978;28;20227;-84
2022/06/13 08:33:25;;;;;;;5.68;4.15;;;22.60;51.80;;;;;;5084252;28;20203;-85
2022/06/13 08:35:51;;;;;;;7.00;4.40;;;22.60;50.70;;;;;;5081445;28;20223;-84
2022/06/13 08:38:18;;;;;;;5.93;4.07;;;22.60;51.50;;;;;;5085275;28;20210;-84
2022/06/13 08:40:47;;;;;;;9.68;3.78;;;22.90;50.70;;;;;;5077801;28;20192;-84
2022/06/13 08:43:28;;;;;;;5.47;4.00;;;23.00;51.70;;;;;;5073804;28;20199;-83
2022/06/13 08:47:02;;;;;;;7.00;4.13;;;23.00;49.30;;;;;;5080358;28;20666;-84
2022/06/13 08:49:41;;;;;;;5.18;3.80;;;22.80;48.90;;;;;;5011952;28;20220;-85
2022/06/13 08:52:27;;;;;;;3.80;3.40;;;22.90;47.80;;;;;;5014350;28;20587;-84
2022/06/13 08:55:29;;;;;;;6.78;4.10;;;23.20;43.70;;;;;;5061476;28;20199;-84
2022/06/13 08:58:18;;;;;;;8.02;3.40;;;23.10;47.10;;;;;;5075991;28;20532;-84
2022/06/13 09:00:50;;;;;;;7.70;3.78;;;23.30;48.10;;;;;;5062418;28;20738;-85
2022/06/13 09:03:56;;;;;;;6.38;4.05;;;23.40;44.90;;;;;;5077029;28;20613;-84
2022/06/13 09:06:40;;;;;;;3.67;3.15;;;23.50;49.00;;;;;;5069192;28;20267;-85
2022/06/13 09:09:17;;;;;;;7.75;3.83;;;23.30;49.00;;;;;;5073313;28;20241;-85
2022/06/13 09:12:04;;;;;;;8.57;4.57;;;23.30;47.70;;;;;;5083818;28;20203;-84
2022/06/13 09:14:36;;;;;;;5.75;3.60;;;23.50;47.60;;;;;;5080152;28;20570;-84
2022/06/13 09:17:20;;;;;;;6.30;3.75;;;23.70;45.30;;;;;;5072226;28;20195;-85
2022/06/13 09:19:58;;;;;;;7.13;3.50;;;24.00;43.20;;;;;;5074947;28;20244;-84
2022/06/13 09:22:59;;;;;;;6.40;3.60;;;23.90;44.00;;;;;;5067088;28;20746;-83
2022/06/13 09:25:37;;;;;;;7.80;3.47;;;23.90;44.50;;;;;;5051958;28;20562;-84
2022/06/13 09:28:19;;;;;;;4.75;3.42;;;23.90;41.90;;;;;;5077047;28;20251;-83
2022/06/13 09:30:50;;;;;;;4.60;3.83;;;24.20;41.90;;;;;;5077526;28;20565;-84
2022/06/13 09:33:31;;;;;;;3.53;3.22;;;24.40;40.00;;;;;;5076246;28;20202;-84
2022/06/13 09:36:19;;;;;;;7.72;3.50;;;24.10;39.90;;;;;;5077631;28;20203;-84
2022/06/13 09:38:51;;;;;;;3.38;3.08;;;23.90;40.90;;;;;;5077161;28;20187;-84
2022/06/13 09:41:32;;;;;;;5.53;3.38;;;23.50;38.30;;;;;;5078087;28;20210;-84
2022/06/13 09:44:11;;;;;;;3.22;2.75;;;23.50;39.70;;;;;;5080446;28;20202;-84
2022/06/13 09:46:43;;;;;;;3.38;2.90;;;23.90;39.30;;;;;;5079369;28;20168;-85
2022/06/13 09:49:36;;;;;;;5.78;3.33;;;24.60;36.30;;;;;;5078473;28;20231;-85
2022/06/13 09:52:06;;;;;;;6.43;3.22;;;24.70;36.90;;;;;;5076913;28;20269;-84
2022/06/13 09:54:34;;;;;;;4.95;3.40;;;24.50;38.90;;;;;;5079610;28;20828;-84
2022/06/13 09:57:03;;;;;;;5.53;3.38;;;24.80;37.60;;;;;;5076174;28;20195;-84
2022/06/13 10:00:02;;;;;;;7.22;3.70;;;24.90;37.70;;;;;;5074472;28;20190;-84
2022/06/13 10:02:30;;;;;;;5.95;3.85;;;24.80;39.50;;;;;;5075922;28;20854;-85
2022/06/13 10:05:24;;;;;;;6.03;3.38;;;25.10;37.80;;;;;;5077965;28;20207;-86
2022/06/13 10:08:31;;;;;;;5.35;3.45;;;25.00;38.30;;;;;;5080915;28;20187;-86
2022/06/13 10:11:00;;;;;;;6.13;3.60;;;25.00;36.30;;;;;;5081668;28;20202;-84
2022/06/13 10:13:44;;;;;;;4.78;2.85;;;24.60;37.10;;;;;;5078276;28;20225;-85
2022/06/13 10:16:28;;;;;;;6.93;3.30;;;24.90;37.30;;;;;;5075099;28;20183;-86
2022/06/13 10:19:02;;;;;;;3.53;3.17;;;24.90;38.40;;;;;;5059738;28;20185;-86
2022/06/13 10:21:57;;;;;;;4.05;3.05;;;24.90;39.10;;;;;;5070181;28;20193;-84
2022/06/13 10:24:31;;;;;;;4.30;3.17;;;25.20;35.80;;;;;;5065823;28;20301;-85
2022/06/13 10:27:03;;;;;;;4.43;2.80;;;25.30;36.80;;;;;;5058337;28;20693;-83
2022/06/13 10:29:47;;;;;;;2.92;2.72;;;25.70;34.20;;;;;;5076583;28;20203;-84
2022/06/13 10:32:37;;;;;;;3.38;2.70;;;25.40;32.90;;;;;;5070461;28;20199;-85
2022/06/13 10:36:04;;;;;;;5.30;2.75;;;25.40;33.20;;;;;;5074906;28;20179;-86
2022/06/13 10:38:46;;;;;;;4.75;2.72;;;25.70;33.20;;;;;;5041574;28;20193;-84
2022/06/13 10:41:13;;;;;;;2.92;2.47;;;26.50;31.00;;;;;;5030931;28;20217;-85
2022/06/13 10:43:42;;;;;;;5.47;3.20;;;26.70;30.10;;;;;;5060688;28;20247;-83
2022/06/13 10:46:11;;;;;;;3.22;2.65;;;26.40;29.80;;;;;;5062010;28;20187;-85
2022/06/13 10:48:54;;;;;;;3.35;2.63;;;26.00;32.30;;;;;;5079070;28;20192;-85
2022/06/13 10:51:20;;;;;;;3.88;2.47;;;26.40;29.50;;;;;;5076607;28;20184;-84
2022/06/13 10:54:13;;;;;;;2.65;2.45;;;26.80;29.30;;;;;;5078109;28;20267;-84
2022/06/13 10:56:46;;;;;;;4.50;2.78;;;26.40;29.50;;;;;;5079007;28;20221;-84
2022/06/13 10:59:27;;;;;;;3.95;2.70;;;26.40;30.90;;;;;;5080649;28;20194;-85
2022/06/13 11:02:02;;;;;;;3.08;2.70;;;26.60;30.70;;;;;;5084086;28;20191;-84
2022/06/13 11:04:33;;;;;;;5.25;2.75;;;26.70;29.30;;;;;;5085732;28;20206;-85
2022/06/13 11:07:12;;;;;;;3.92;2.83;;;26.80;28.80;;;;;;5094195;28;20205;-84
2022/06/13 11:09:47;;;;;;;3.42;2.63;;;26.90;30.40;;;;;;5080035;28;20230;-85
2022/06/13 11:12:31;;;;;;;2.80;2.60;;;27.40;30.20;;;;;;5084552;28;20623;-85
2022/06/13 11:23:54;;;;;;;4.60;2.75;;;27.40;28.60;;;;;;5085803;28;20214;-90
2022/06/13 11:29:13;;;;;;;8.60;3.15;;;27.80;27.80;;;;;;5089550;28;20249;-87
2022/06/13 11:31:50;;;;;;;5.60;2.95;;;28.30;28.20;;;;;;5075933;28;20180;-88
2022/06/13 11:34:38;;;;;;;4.22;2.70;;;28.20;27.90;;;;;;5078328;28;20227;-86
2022/06/13 11:37:13;;;;;;;3.42;2.72;;;27.50;27.80;;;;;;5080030;28;20293;-88
2022/06/13 11:39:50;;;;;;;6.88;3.38;;;27.40;29.20;;;;;;5080924;28;20201;-86
2022/06/13 11:42:28;;;;;;;2.63;2.42;;;27.50;28.10;;;;;;5072449;28;20183;-89
2022/06/13 11:45:01;;;;;;;5.47;2.67;;;27.50;28.80;;;;;;5090355;28;20217;-90
2022/06/13 11:47:42;;;;;;;3.75;2.78;;;27.40;28.50;;;;;;5083584;28;20213;-87
2022/06/13 11:50:27;;;;;;;2.63;2.42;;;27.00;28.90;;;;;;5091398;28;20296;-86
2022/06/13 11:55:57;;;;;;;3.15;2.60;;;28.00;28.30;;;;;;5063474;28;20221;-85
2022/06/13 11:58:30;;;;;;;3.45;2.60;;;28.60;26.10;;;;;;5086935;28;20654;-86
2022/06/13 12:01:28;;;;;;;2.90;2.70;;;28.90;27.10;;;;;;5091427;28;20191;-87
2022/06/13 12:04:19;;;;;;;2.60;2.40;;;28.70;27.30;;;;;;5087166;28;20214;-85
2022/06/13 12:06:48;;;;;;;3.38;2.90;;;28.60;27.60;;;;;;5065971;28;20232;-86
2022/06/13 12:09:21;;;;;;;7.95;3.05;;;28.50;27.90;;;;;;5086249;28;20215;-86
2022/06/13 12:11:57;;;;;;;3.40;2.70;;;28.20;27.40;;;;;;5069402;28;20242;-85
2022/06/13 12:14:25;;;;;;;4.60;2.70;;;27.90;28.00;;;;;;5085947;28;20198;-87
2022/06/13 12:17:17;;;;;;;2.75;2.53;;;28.50;27.90;;;;;;5071462;28;20905;-86
2022/06/13 12:19:52;;;;;;;3.10;2.80;;;29.20;27.40;;;;;;5086798;28;20245;-86
2022/06/13 12:22:34;;;;;;;3.10;2.80;;;29.70;26.50;;;;;;5082999;28;20220;-86
2022/06/13 12:25:25;;;;;;;3.50;2.65;;;29.70;26.00;;;;;;5086434;28;20259;-85
2022/06/13 12:27:53;;;;;;;3.15;2.75;;;28.80;26.10;;;;;;5080003;28;20251;-85
2022/06/13 12:30:58;;;;;;;7.50;3.20;;;28.40;27.50;;;;;;5066324;28;20207;-85
2022/06/13 12:33:33;;;;;;;3.17;2.70;;;28.70;27.10;;;;;;5073462;28;20224;-86
2022/06/13 12:36:40;;;;;;;3.38;2.72;;;28.40;27.20;;;;;;5083680;28;20187;-86
2022/06/13 12:39:35;;;;;;;5.63;3.20;;;28.20;27.80;;;;;;5084557;28;20191;-85
2022/06/13 12:42:09;;;;;;;6.70;3.33;;;28.00;28.00;;;;;;5081056;28;20191;-84
2022/06/13 12:44:49;;;;;;;4.32;2.75;;;28.30;27.60;;;;;;5075366;28;20195;-85
2022/06/13 12:47:45;;;;;;;4.20;3.00;;;28.10;28.10;;;;;;5089583;28;20250;-88
2022/06/13 12:50:14;;;;;;;3.95;3.03;;;28.40;27.40;;;;;;5086050;28;20227;-85
2022/06/13 12:53:27;;;;;;;3.72;3.10;;;28.40;27.40;;;;;;5081466;28;20196;-84
2022/06/13 12:56:05;;;;;;;3.25;2.95;;;28.20;27.50;;;;;;5050118;28;20245;-88
2022/06/13 12:59:15;;;;;;;4.97;2.95;;;27.90;27.60;;;;;;5087364;28;20182;-87
2022/06/13 13:02:21;;;;;;;4.53;2.90;;;28.20;27.90;;;;;;5062951;28;20242;-88
2022/06/13 13:05:11;;;;;;;2.97;2.65;;;28.00;27.90;;;;;;5072993;28;20190;-85
2022/06/13 13:08:00;;;;;;;3.65;2.80;;;28.30;27.60;;;;;;5086762;28;20179;-87
2022/06/13 13:10:52;;;;;;;3.28;2.60;;;28.50;27.30;;;;;;5062163;28;20214;-85
2022/06/13 13:13:39;;;;;;;4.72;3.20;;;28.40;26.70;;;;;;5060132;28;20207;-85
2022/06/13 13:16:36;;;;;;;6.35;3.80;;;28.00;27.60;;;;;;5095700;28;20199;-84
2022/06/13 13:19:15;;;;;;;6.38;3.38;;;28.30;27.60;;;;;;5066039;28;20195;-85
2022/06/13 13:21:50;;;;;;;6.05;3.28;;;28.50;26.30;;;;;;5076486;28;20233;-86
2022/06/13 13:24:37;;;;;;;3.78;3.13;;;28.50;27.00;;;;;;5075135;28;20206;-85
2022/06/13 13:27:07;;;;;;;4.20;2.72;;;29.20;28.00;;;;;;5079545;28;20187;-84
2022/06/13 13:30:04;;;;;;;3.33;2.97;;;30.10;26.20;;;;;;5071431;28;20200;-84
2022/06/13 13:33:12;;;;;;;4.10;3.33;;;30.10;26.60;;;;;;5071409;28;20239;-83
2022/06/13 13:35:59;;;;;;;3.25;3.00;;;30.30;25.60;;;;;;5087206;28;20179;-86
2022/06/13 13:38:28;;;;;;;3.40;3.10;;;30.60;25.00;;;;;;5074444;28;20194;-86
2022/06/13 13:41:13;;;;;;;14.90;3.70;;;31.10;24.80;;;;;;5079433;28;20183;-86
2022/06/13 13:43:50;;;;;;;7.57;3.50;;;30.90;24.50;;;;;;5069523;28;20317;-86
2022/06/13 13:46:24;;;;;;;4.00;2.90;;;31.50;25.10;;;;;;5078614;28;20256;-85
2022/06/13 13:49:11;;;;;;;4.78;2.97;;;31.60;24.00;;;;;;5079488;28;20206;-86
2022/06/13 13:52:03;;;;;;;6.40;3.10;;;31.50;24.00;;;;;;5078637;28;20176;-87
2022/06/13 13:54:38;;;;;;;3.30;3.00;;;31.40;24.90;;;;;;5062455;28;20234;-84
2022/06/13 13:57:06;;;;;;;5.30;3.00;;;31.40;24.70;;;;;;5083985;28;20183;-85
2022/06/13 13:59:36;;;;;;;3.80;3.10;;;31.70;25.00;;;;;;5085095;28;20195;-85